Du har inga inställningar för hoppväder.nu

Hoppväder.nu

Senast uppdaterat 10:24

UTC-tid

2019-04-23 kl. 08:24


Sol och måne

Solen går upp 5:40 och går ner 21:30 (beräknade cirkatider)
Nästa fullmåne blir om 25 dagar (2019-05-18)

METAR

ESMS (Malmö)
(34 minuter sedan)
ESMS 230750Z 11017KT CAVOK 15/M00 Q1020=



ESMK (Everöd)
(34 minuter sedan)
ESMK 230750Z 11014KT CAVOK 13/03 Q1022=



ESTL (Ljungbyhed)
(34 minuter sedan)
ESTL 230750Z 13018G30KT CAVOK 16/M01 Q1021=



EKCH (Köpenhamn)
(34 minuter sedan)
EKCH 230750Z AUTO 12015KT 9999NDV NCD 14/02 Q1020 TEMPO 12018G28KT=



ESTA (Ängelholm)
(34 minuter sedan)
ESTA 230750Z 11017KT CAVOK 14/03 Q1021=



TAF

ESMS (Malmö)
(190 minuter sedan)
ESMS 230514Z 2306/2406 10012KT CAVOK BECMG 2306/2309 11018G35KT TEMPO 2309/2316 10022G42KT BECMG 2316/2319 10015G25KT=



ESMK (Everöd)
(23 minuter sedan)
ESMK 230801Z 2309/2318 11015KT CAVOK TEMPO 2309/2318 10020G35KT=



ESTL (Ljungbyhed)
(23 minuter sedan)
ESTL 230801Z 2309/2315 12018KT CAVOK TEMPO 2309/2315 11020G35KT=



EKCH (Köpenhamn)
(190 minuter sedan)
EKCH 230514Z 2306/2406 10018KT CAVOK TEMPO 2309/2317 10022G35KT=



ESTA (Ängelholm)
(23 minuter sedan)
ESTA 230801Z 2309/2318 11018KT CAVOK TEMPO 2309/2316 11022G38KT=





Kodnycklar till TAF och METAR






LHP

(Eslöv är område J3c i Hela Område E)

ÖVERSIKT FÖR OMRÅDE E UTFÄRDAD 230730
GÄLLANDE DEN 23 APRIL 2019 MELLAN 08 OCH 16 UTC


Väderöversikt
Se väderöversikt för område A+B

Sikt under 5 kilometer eller molnbas under 1000 fot
Väntas inte förekomma under perioden.

Måttlig eller svår isbildning
Väntas inte förekomma under perioden

Måttlig eller svår turbulens
08-16UTC: I hela området



PROGNOS FÖR OMRÅDE J UTFÄRDAD 230730
GÄLLANDE DEN 23 APRIL 2019 MELLAN 08 OCH 16 UTC

Måttlig eller svår turbulens
08-16UTC: I hela området: måttlig turbulens SFC - 3000ft.

Måttlig eller svår isbildning
08-16UTC: I hela området: Väntas inte förekomma under perioden

Sikt/Väder/Moln
08-16UTC: I hela området: Sikt >8km. Molnbas >4000ft.

Molnöversida
08-16UTC: I hela området: Ingen prognos

CB/TCU Moln
08-16UTC: I hela området: Väntas inte förekomma under perioden

Nollgradersisoterm
08-14UTC: Noll grader FL055 - FL100.
14-16UTC: Noll grader FL060 - FL080.

Vind vid marken
08-10UTC: Område J2b: O-SO/12-21 knop, byar upp till 35 knop.
Område J4c: O-SO/15-23 knop, byar upp till 36 knop.
Område J4b: O-SO/12-21 knop, byar upp till 32 knop.
Område J3b: O-SO/12-19 knop, byar upp till 34 knop.
Område J2a: SO/10-20 knop, byar upp till 33 knop.
Område J4a: O/15-26 knop, byar upp till 39 knop.
Område J1a: O-SO/12-20 knop, byar upp till 31 knop.
Område J1c: O-SO/16-26 knop, byar upp till 38 knop.
Område J3a: SO/11-19 knop, byar upp till 35 knop.
Område J3c: O-SO/11-24 knop, byar upp till 39 knop.
Område J1b: O-SO/13-22 knop, byar upp till 35 knop.

10-12UTC: Område J1b: O-SO/16-25 knop, byar upp till 38 knop.
Område J1c: O-SO/17-29 knop, byar upp till 42 knop.
Område J4a: O/18-26 knop, byar upp till 43 knop.
Område J3c: O-SO/12-26 knop, byar upp till 43 knop.
Område J4b: O/12-22 knop, byar upp till 33 knop.
Område J2b: O-SO/13-25 knop, byar upp till 38 knop.
Område J3a: O-SO/11-18 knop, byar upp till 37 knop.
Område J2a: SO/10-24 knop, byar upp till 38 knop.
Område J3b: O-SO/13-20 knop, byar upp till 36 knop.
Område J4c: O/15-25 knop, byar upp till 39 knop.

10-14UTC: Område J1a: SO/12-24 knop, byar upp till 36 knop.

12-14UTC: Område J3a: O-SO/13-21 knop, byar upp till 38 knop.
Område J4b: O/14-24 knop, byar upp till 36 knop.
Område J4c: O/16-25 knop, byar upp till 38 knop.
Område J2b: O-SO/14-26 knop, byar upp till 40 knop.
Område J2a: O-SO/11-24 knop, byar upp till 37 knop.
Område J4a: O/19-29 knop, byar upp till 45 knop.
Område J1b: O-SO/17-26 knop, byar upp till 40 knop.
Område J3b: O-SO/14-23 knop, byar upp till 39 knop.

12-16UTC: Område J1c: O-SO/18-30 knop, byar upp till 44 knop.
Område J3c: O/14-27 knop, byar upp till 45 knop.

14-16UTC: Område J2a: O-SO/11-24 knop, byar upp till 38 knop.
Område J3b: O-SO/13-24 knop, byar upp till 39 knop.
Område J2b: O-SO/14-26 knop, byar upp till 41 knop.
Område J4a: O/19-30 knop, byar upp till 45 knop.
Område J4b: O/15-25 knop, byar upp till 38 knop.
Område J1b: O-SO/18-27 knop, byar upp till 41 knop.
Område J1a: SO/11-25 knop, byar upp till 37 knop.
Område J4c: O/15-26 knop, byar upp till 37 knop.
Område J3a: O-SO/13-22 knop, byar upp till 39 knop.


Genomsnittlig vind och temperatur för området
2000ft:
08-10UTC: 130/34kt +8.
10-12UTC: 120/34kt +9.
12-14UTC: 110/36kt +10.
14-16UTC: 110/37kt +10.

FL50:
08-10UTC: 130/37kt +1.
10-12UTC: 130/36kt +2.
12-14UTC: 120/37kt +2.
14-16UTC: 120/39kt +2.

FL100:
08-10UTC: 120/33kt -4.
10-12UTC: 120/37kt -4.
12-14UTC: 120/39kt -4.
14-16UTC: 130/36kt -6.

Lägsta QNH
1013 hPa.

OBS! endast utbredd måttlig eller svår isbildning och turbulens prognostiseras i LLF.
Avsaknad av isbildning och turbulens i prognosen utesluter inte förekomst av lätt isbildning och turbulens.
För indikation på lätt isbildning, var vänlig kontrollera om prognosen för molntopp ligger högre än nollgradersisotermen.
Förekomst av TCU eller CB medför alltid en risk för måttlig eller svår isbildning och turbulens även om det inte framgår explicit av prognosen.





Spotting

Hur fungerar spotthjälpen och Vindkartan?

Markvind är ca 6-12 m/s med byar på 20 m/s.
Vind på 600 m ca 17 m/s.
Vind på 1500 m ca 19 m/s.
Vind på 3000 m ca 17 m/s.
Caravanen flyger ca 24 m/s över marken på finalen.
Du driver ca 764 m bakåt i frifall. (1019 m)
Lämplig spot är 20 sekunder eller 484 m efter gropen.
(30 s eller 725 m)
För små grupper eller ensamhoppare bör man vänta 6-9 sekunder mellan grupperna.
För större grupper bör man vänta 12-15 sekunder mellan grupperna.


Vindkartan

Senast uppdaterad 10:24




All data kommer från LFV.se